createdAt,value
2023-07-02T00:02:30.017Z,17.50
2023-07-02T00:05:00.137Z,17.51
2023-07-02T00:07:30.206Z,17.58
2023-07-02T00:10:02.803Z,17.54
2023-07-02T00:12:33.205Z,17.53
2023-07-02T00:15:05.346Z,17.52
2023-07-02T00:17:35.535Z,17.51
2023-07-02T00:20:10.313Z,17.53
2023-07-02T00:22:40.312Z,17.59
2023-07-02T00:25:13.093Z,17.64
2023-07-02T00:27:43.123Z,17.69
2023-07-02T00:30:14.052Z,17.60
2023-07-02T00:32:46.636Z,17.64
2023-07-02T00:35:16.884Z,17.62
2023-07-02T00:37:47.696Z,17.63
2023-07-02T00:40:20.298Z,17.73
2023-07-02T00:42:52.143Z,17.70
2023-07-02T00:45:22.431Z,17.79
2023-07-02T00:47:53.194Z,17.68
2023-07-02T00:50:24.423Z,17.79
2023-07-02T00:52:55.317Z,17.77
2023-07-02T00:55:28.469Z,17.83
2023-07-02T00:57:59.347Z,17.71
2023-07-02T01:00:30.081Z,17.72
2023-07-02T01:03:01.166Z,17.74
2023-07-02T01:05:37.126Z,17.57
2023-07-02T01:08:07.304Z,17.61
2023-07-02T01:10:40.030Z,17.66
2023-07-02T01:13:16.160Z,17.59
2023-07-02T01:15:48.321Z,17.61
2023-07-02T01:18:19.464Z,17.67
2023-07-02T01:20:52.324Z,17.70
2023-07-02T01:23:22.890Z,17.69
2023-07-02T01:25:55.830Z,17.67
2023-07-02T01:28:26.239Z,17.72
2023-07-02T01:30:56.312Z,17.65
2023-07-02T01:33:26.286Z,17.65
2023-07-02T01:35:59.009Z,17.72
2023-07-02T01:38:29.050Z,17.69
2023-07-02T01:40:59.021Z,17.66
2023-07-02T01:43:29.166Z,17.70
2023-07-02T01:46:02.920Z,17.70
2023-07-02T01:48:33.006Z,17.61
2023-07-02T01:51:05.842Z,17.70
2023-07-02T01:53:35.813Z,17.60
2023-07-02T01:56:06.339Z,17.48
2023-07-02T01:58:36.356Z,17.53
2023-07-02T02:01:06.436Z,17.54
2023-07-02T02:03:36.590Z,17.50
2023-07-02T02:06:09.336Z,17.51
2023-07-02T02:08:39.321Z,17.49
2023-07-02T02:11:09.628Z,17.46
2023-07-02T02:13:39.667Z,17.41
2023-07-02T02:16:09.792Z,17.38
2023-07-02T02:18:39.842Z,17.36
2023-07-02T02:21:12.435Z,17.36
2023-07-02T02:23:42.931Z,17.43
2023-07-02T02:26:12.977Z,17.35
2023-07-02T02:28:42.996Z,17.34
2023-07-02T02:31:13.604Z,17.35
2023-07-02T02:33:43.954Z,17.35
2023-07-02T02:36:17.134Z,17.30
2023-07-02T02:38:47.402Z,17.28
2023-07-02T02:41:18.360Z,17.20
2023-07-02T02:43:53.622Z,17.22
2023-07-02T02:46:25.671Z,17.18
2023-07-02T02:48:56.872Z,17.13
2023-07-02T02:51:29.559Z,17.10
2023-07-02T02:53:59.594Z,17.15
2023-07-02T02:56:29.625Z,17.26
2023-07-02T02:58:59.695Z,17.14
2023-07-02T03:01:32.236Z,17.12
2023-07-02T03:04:03.572Z,17.20
2023-07-02T03:06:36.250Z,17.15
2023-07-02T03:09:06.515Z,17.22
2023-07-02T03:11:36.653Z,17.30
2023-07-02T03:14:06.721Z,17.22
2023-07-02T03:16:37.108Z,17.19
2023-07-02T03:19:07.171Z,17.21
2023-07-02T03:21:39.761Z,17.11
2023-07-02T03:24:11.692Z,17.21
2023-07-02T03:26:41.774Z,17.28
2023-07-02T03:29:11.981Z,17.26
2023-07-02T03:31:42.423Z,17.35
2023-07-02T03:34:13.819Z,17.27
2023-07-02T03:36:46.431Z,17.05
2023-07-02T03:39:16.475Z,17.20
2023-07-02T03:41:47.487Z,17.37
2023-07-02T03:44:17.549Z,17.25
2023-07-02T03:46:48.092Z,16.99
2023-07-02T03:49:18.118Z,17.05
2023-07-02T03:51:50.734Z,17.06
2023-07-02T03:54:20.720Z,17.00
2023-07-02T03:56:50.704Z,16.85
2023-07-02T03:59:20.698Z,16.76
2023-07-02T04:01:50.868Z,16.80
2023-07-02T04:04:21.015Z,16.75
2023-07-02T04:06:53.673Z,16.78
2023-07-02T04:09:23.867Z,16.91
2023-07-02T04:11:53.969Z,16.96
2023-07-02T04:14:23.940Z,16.86
2023-07-02T04:16:53.920Z,16.90
2023-07-02T04:19:23.892Z,16.93
2023-07-02T04:21:56.568Z,16.83
2023-07-02T04:24:26.949Z,17.00
2023-07-02T04:27:07.866Z,16.85
2023-07-02T04:29:47.505Z,16.93
2023-07-02T04:32:17.581Z,16.94
2023-07-02T04:34:47.665Z,16.97
2023-07-02T04:37:20.270Z,16.87
2023-07-02T04:39:50.353Z,16.88
2023-07-02T04:42:20.439Z,16.76
2023-07-02T04:44:50.453Z,16.75
2023-07-02T04:47:20.407Z,16.83
2023-07-02T04:49:50.498Z,16.89
2023-07-02T04:52:23.032Z,16.81
2023-07-02T04:54:53.060Z,16.94
2023-07-02T04:57:23.179Z,17.01
2023-07-02T04:59:53.457Z,16.92
2023-07-02T05:02:23.437Z,16.93
2023-07-02T05:04:53.560Z,17.11
2023-07-02T05:07:26.206Z,16.90
2023-07-02T05:09:56.251Z,16.95
2023-07-02T05:12:27.227Z,17.05
2023-07-02T05:14:57.251Z,17.12
2023-07-02T05:17:27.580Z,17.10
2023-07-02T05:19:57.624Z,17.00
2023-07-02T05:22:32.639Z,17.10
2023-07-02T05:25:02.942Z,17.34
2023-07-02T05:27:32.971Z,17.24
2023-07-02T05:30:03.016Z,17.25
2023-07-02T05:32:33.209Z,17.27
2023-07-02T05:35:03.351Z,17.40
2023-07-02T05:37:35.973Z,17.35
2023-07-02T05:40:06.128Z,17.42
2023-07-02T05:42:36.148Z,17.48
2023-07-02T05:45:06.567Z,17.58
2023-07-02T05:47:36.542Z,17.51
2023-07-02T05:50:06.716Z,17.63
2023-07-02T05:52:39.336Z,17.59
2023-07-02T05:55:13.928Z,17.84
2023-07-02T05:57:43.968Z,17.57
2023-07-02T06:00:15.568Z,17.58
2023-07-02T06:02:46.905Z,17.65
2023-07-02T06:05:17.093Z,17.83
2023-07-02T06:07:49.767Z,17.91
2023-07-02T06:10:20.292Z,17.71
2023-07-02T06:12:50.356Z,17.71
2023-07-02T06:15:20.368Z,17.98
2023-07-02T06:17:50.454Z,17.92
2023-07-02T06:20:20.572Z,17.97
2023-07-02T06:22:53.142Z,18.21
2023-07-02T06:25:23.184Z,18.27
2023-07-02T06:27:55.878Z,18.25
2023-07-02T06:30:26.271Z,18.10
2023-07-02T06:32:59.520Z,18.08
2023-07-02T06:35:29.605Z,18.06
2023-07-02T06:38:02.256Z,18.17
2023-07-02T06:40:33.086Z,18.28
2023-07-02T06:43:03.182Z,18.33
2023-07-02T06:45:33.269Z,18.35
2023-07-02T06:48:03.450Z,18.41
2023-07-02T06:50:33.483Z,18.30
2023-07-02T06:53:06.118Z,18.38
2023-07-02T06:55:36.217Z,18.46
2023-07-02T06:58:08.119Z,18.42
2023-07-02T07:00:39.213Z,18.43
2023-07-02T07:03:09.595Z,18.65
2023-07-02T07:05:39.665Z,18.59
2023-07-02T07:08:12.265Z,18.33
2023-07-02T07:10:42.283Z,18.36
2023-07-02T07:13:12.256Z,18.40
2023-07-02T07:15:42.529Z,18.37
2023-07-02T07:18:13.722Z,18.36
2023-07-02T07:20:45.656Z,18.24
2023-07-02T07:23:19.524Z,18.23
2023-07-02T07:25:49.602Z,18.25
2023-07-02T07:28:19.658Z,18.43
2023-07-02T07:30:50.341Z,18.58
2023-07-02T07:33:21.004Z,18.70
2023-07-02T07:35:51.387Z,18.68
2023-07-02T07:38:24.147Z,18.69
2023-07-02T07:40:54.671Z,18.80
2023-07-02T07:43:24.809Z,18.80
2023-07-02T07:45:56.166Z,18.83
2023-07-02T07:48:26.405Z,18.73
2023-07-02T07:50:56.905Z,18.98
2023-07-02T07:53:29.606Z,18.87
2023-07-02T07:56:00.623Z,18.81
2023-07-02T07:58:30.633Z,18.79
2023-07-02T08:01:00.689Z,18.79
2023-07-02T08:03:30.726Z,18.91
2023-07-02T08:06:00.799Z,19.02
2023-07-02T08:08:33.416Z,19.21
2023-07-02T08:11:03.607Z,19.10
2023-07-02T08:13:33.749Z,19.01
2023-07-02T08:16:03.971Z,19.08
2023-07-02T08:18:34.155Z,19.26
2023-07-02T08:21:06.216Z,19.06
2023-07-02T08:23:39.033Z,19.40
2023-07-02T08:26:09.270Z,19.55
2023-07-02T08:28:39.898Z,19.64
2023-07-02T08:31:10.085Z,19.60
2023-07-02T08:33:40.265Z,19.63
2023-07-02T08:36:10.519Z,19.69
2023-07-02T08:38:44.468Z,19.61
2023-07-02T08:41:14.833Z,19.53
2023-07-02T08:43:45.188Z,19.55
2023-07-02T08:46:16.409Z,19.65
2023-07-02T08:48:46.501Z,19.95
2023-07-02T08:51:17.237Z,19.68
2023-07-02T08:53:50.992Z,19.71
2023-07-02T08:56:21.127Z,19.49
2023-07-02T08:58:51.264Z,19.49
2023-07-02T09:01:21.491Z,19.40
2023-07-02T09:03:53.263Z,19.62
2023-07-02T09:06:25.288Z,20.04
2023-07-02T09:09:08.182Z,19.98
2023-07-02T09:11:39.084Z,20.14
2023-07-02T09:14:09.697Z,20.00
2023-07-02T09:16:41.814Z,20.19
2023-07-02T09:19:14.023Z,20.29
2023-07-02T09:21:47.484Z,20.38
2023-07-02T09:24:22.704Z,20.30
2023-07-02T09:26:55.073Z,20.24
2023-07-02T09:29:27.937Z,20.58
2023-07-02T09:32:09.368Z,20.60
2023-07-02T09:34:43.775Z,20.53
2023-07-02T09:37:13.974Z,20.72
2023-07-02T09:39:47.438Z,20.39
2023-07-02T09:42:18.120Z,20.22
2023-07-02T09:44:49.223Z,20.39
2023-07-02T09:47:23.140Z,20.34
2023-07-02T09:49:57.679Z,20.32
2023-07-02T09:52:29.260Z,20.37
2023-07-02T09:55:02.428Z,20.42
2023-07-02T09:57:32.740Z,20.24
2023-07-02T10:00:03.827Z,20.43
2023-07-02T10:02:37.458Z,20.71
2023-07-02T10:05:08.256Z,20.70
2023-07-02T10:07:38.511Z,20.58
2023-07-02T10:10:12.081Z,20.75
2023-07-02T10:12:50.193Z,20.91
2023-07-02T10:15:29.313Z,21.13
2023-07-02T10:18:00.834Z,21.10
2023-07-02T10:20:39.931Z,20.74
2023-07-02T10:23:11.604Z,20.98
2023-07-02T10:25:44.253Z,21.31
2023-07-02T10:28:27.863Z,21.45
2023-07-02T10:31:00.633Z,21.39
2023-07-02T10:33:34.913Z,21.39
2023-07-02T10:36:05.039Z,21.74
2023-07-02T10:38:35.121Z,21.92
2023-07-02T10:41:10.700Z,21.99
2023-07-02T10:43:40.795Z,21.78
2023-07-02T10:46:10.939Z,21.41
2023-07-02T10:48:42.593Z,21.70
2023-07-02T10:51:17.353Z,21.83
2023-07-02T10:53:48.660Z,22.27
2023-07-02T10:56:23.418Z,22.21
2023-07-02T10:58:53.921Z,22.34
2023-07-02T11:01:28.356Z,22.52
2023-07-02T11:04:06.669Z,22.69
2023-07-02T11:06:37.090Z,22.94
2023-07-02T11:09:07.262Z,23.15
2023-07-02T11:11:39.918Z,23.17
2023-07-02T11:14:10.023Z,23.17
2023-07-02T11:16:40.216Z,22.47
2023-07-02T11:19:13.178Z,22.40
2023-07-02T11:21:53.789Z,22.58
2023-07-02T11:24:32.003Z,22.78
2023-07-02T11:27:06.925Z,23.04
2023-07-02T11:29:39.860Z,23.41
2023-07-02T11:32:10.763Z,23.22
2023-07-02T11:34:41.989Z,22.91
2023-07-02T11:37:12.192Z,23.05
2023-07-02T11:39:42.279Z,23.03
2023-07-02T11:42:15.091Z,23.09
2023-07-02T11:44:45.308Z,23.40
2023-07-02T11:47:15.486Z,23.66
2023-07-02T11:49:45.909Z,23.45
2023-07-02T11:52:16.868Z,23.60
2023-07-02T11:54:46.918Z,23.96
2023-07-02T11:57:19.598Z,23.64
2023-07-02T11:59:50.538Z,23.88
2023-07-02T12:02:20.694Z,24.24
2023-07-02T12:04:50.878Z,23.97
2023-07-02T12:07:21.089Z,24.18
2023-07-02T12:09:51.167Z,24.61
2023-07-02T12:12:25.859Z,24.61
2023-07-02T12:14:55.928Z,24.26
2023-07-02T12:17:26.077Z,24.25
2023-07-02T12:19:56.220Z,24.05
2023-07-02T12:22:26.345Z,24.28
2023-07-02T12:24:58.837Z,24.73
2023-07-02T12:27:31.545Z,24.85
2023-07-02T12:30:01.546Z,25.07
2023-07-02T12:32:31.650Z,24.96
2023-07-02T12:35:02.583Z,25.39
2023-07-02T12:37:32.609Z,25.11
2023-07-02T12:40:02.752Z,24.96
2023-07-02T12:42:35.343Z,25.00
2023-07-02T12:45:05.414Z,24.88
2023-07-02T12:47:35.633Z,25.19
2023-07-02T12:50:05.905Z,24.98
2023-07-02T12:52:36.182Z,25.42
2023-07-02T12:55:06.924Z,25.39
2023-07-02T12:57:39.616Z,25.31
2023-07-02T13:00:11.404Z,25.77
2023-07-02T13:02:54.166Z,25.83
2023-07-02T13:05:31.642Z,25.79
2023-07-02T13:08:01.849Z,25.70
2023-07-02T13:10:33.166Z,25.46
2023-07-02T13:13:21.757Z,25.39
2023-07-02T13:15:55.017Z,25.45
2023-07-02T13:18:25.021Z,25.75
2023-07-02T13:20:55.060Z,25.71
2023-07-02T13:23:25.112Z,26.11
2023-07-02T13:25:55.350Z,26.36
2023-07-02T13:28:29.518Z,26.19
2023-07-02T13:31:00.327Z,26.45
2023-07-02T13:33:32.142Z,26.46
2023-07-02T13:36:02.347Z,26.49
2023-07-02T13:38:32.491Z,26.16
2023-07-02T13:41:03.151Z,26.43
2023-07-02T13:43:35.861Z,26.49
2023-07-02T13:46:07.359Z,26.67
2023-07-02T13:48:37.550Z,26.63
2023-07-02T13:51:09.323Z,26.21
2023-07-02T13:53:39.365Z,26.47
2023-07-02T13:56:09.496Z,26.45
2023-07-02T13:59:06.226Z,26.45
2023-07-02T14:01:36.682Z,26.41
2023-07-02T14:04:07.902Z,26.59
2023-07-02T14:06:38.069Z,27.26
2023-07-02T14:09:10.771Z,27.04
2023-07-02T14:11:43.072Z,27.19
2023-07-02T14:14:16.150Z,27.23
2023-07-02T14:16:46.647Z,27.20
2023-07-02T14:19:18.230Z,27.15
2023-07-02T14:21:48.417Z,27.40
2023-07-02T14:24:18.984Z,27.35
2023-07-02T14:26:49.039Z,27.80
2023-07-02T14:29:21.971Z,27.59
2023-07-02T14:31:53.991Z,27.63
2023-07-02T14:34:24.185Z,27.25
2023-07-02T14:36:54.228Z,27.09
2023-07-02T14:39:24.192Z,27.20
2023-07-02T14:41:54.757Z,28.67
2023-07-02T14:44:27.469Z,29.73
2023-07-02T14:46:57.657Z,28.72
2023-07-02T14:49:27.811Z,28.79
2023-07-02T14:51:57.803Z,29.56
2023-07-02T14:54:27.866Z,29.56
2023-07-02T14:56:57.866Z,28.41
2023-07-02T14:59:30.566Z,28.59
2023-07-02T15:02:00.559Z,28.65
2023-07-02T15:04:32.493Z,29.43
2023-07-02T15:07:02.769Z,29.50
2023-07-02T15:09:32.931Z,29.49
2023-07-02T15:12:03.043Z,29.81
2023-07-02T15:14:35.631Z,30.00
2023-07-02T15:17:05.835Z,28.56
2023-07-02T15:19:38.801Z,29.75
2023-07-02T15:22:09.019Z,29.72
2023-07-02T15:24:39.079Z,28.86
2023-07-02T15:27:09.796Z,30.19
2023-07-02T15:29:42.537Z,30.38
2023-07-02T15:32:12.597Z,29.61
2023-07-02T15:34:42.779Z,30.19
2023-07-02T15:37:12.836Z,30.73
2023-07-02T15:39:42.957Z,29.99
2023-07-02T15:42:13.162Z,29.95
2023-07-02T15:44:45.774Z,29.79
2023-07-02T15:47:16.478Z,29.61
2023-07-02T15:49:46.599Z,29.73
2023-07-02T15:52:16.725Z,29.91
2023-07-02T15:54:46.810Z,30.26
2023-07-02T15:57:16.912Z,30.49
2023-07-02T15:59:49.602Z,30.97
2023-07-02T16:02:19.733Z,29.13
2023-07-02T16:04:50.018Z,30.33
2023-07-02T16:07:20.242Z,29.86
2023-07-02T16:09:50.302Z,30.32
2023-07-02T16:12:20.378Z,30.74
2023-07-02T16:14:53.034Z,30.74
2023-07-02T16:17:23.173Z,29.39
2023-07-02T16:19:53.253Z,29.76
2023-07-02T16:22:23.312Z,30.68
2023-07-02T16:24:53.380Z,30.37
2023-07-02T16:27:24.269Z,29.81
2023-07-02T16:29:56.867Z,29.62
2023-07-02T16:32:29.912Z,30.07
2023-07-02T16:35:00.044Z,30.57
2023-07-02T16:37:30.221Z,30.86
2023-07-02T16:40:00.418Z,28.76
2023-07-02T16:42:30.535Z,29.73
2023-07-02T16:45:06.957Z,29.19
2023-07-02T16:47:38.311Z,29.29
2023-07-02T16:50:09.805Z,29.22
2023-07-02T16:52:39.895Z,28.38
2023-07-02T16:55:10.625Z,27.58
2023-07-02T16:57:40.703Z,28.21
2023-07-02T17:00:14.901Z,28.34
2023-07-02T17:02:44.965Z,28.86
2023-07-02T17:05:15.347Z,28.39
2023-07-02T17:07:45.353Z,27.74
2023-07-02T17:10:15.463Z,27.41
2023-07-02T17:12:45.613Z,28.05
2023-07-02T17:15:18.581Z,27.73
2023-07-02T17:17:48.817Z,26.93
2023-07-02T17:20:19.136Z,27.00
2023-07-02T17:22:49.285Z,28.02
2023-07-02T17:25:19.606Z,27.46
2023-07-02T17:27:49.661Z,26.99
2023-07-02T17:30:22.569Z,26.70
2023-07-02T17:32:52.726Z,26.93
2023-07-02T17:35:22.803Z,26.00
2023-07-02T17:37:52.836Z,26.07
2023-07-02T17:40:23.159Z,26.17
2023-07-02T17:42:53.266Z,26.09
2023-07-02T17:45:25.951Z,26.23
2023-07-02T17:47:56.058Z,26.01
2023-07-02T17:50:26.300Z,25.71
2023-07-02T17:52:56.364Z,25.50
2023-07-02T17:55:28.530Z,25.32
2023-07-02T17:58:00.061Z,25.47
2023-07-02T18:00:32.833Z,25.57
2023-07-02T18:03:03.037Z,25.73
2023-07-02T18:05:33.283Z,25.21
2023-07-02T18:08:03.401Z,24.95
2023-07-02T18:10:33.501Z,25.18
2023-07-02T18:13:03.539Z,24.99
2023-07-02T18:15:36.184Z,24.99
2023-07-02T18:18:06.250Z,24.79
2023-07-02T18:20:36.805Z,24.75
2023-07-02T18:23:06.875Z,24.55
2023-07-02T18:25:36.909Z,24.75
2023-07-02T18:28:09.117Z,24.85
2023-07-02T18:30:46.464Z,24.50
2023-07-02T18:33:16.925Z,24.38
2023-07-02T18:35:48.376Z,24.61
2023-07-02T18:38:19.907Z,24.32
2023-07-02T18:40:49.959Z,23.98
2023-07-02T18:43:19.990Z,23.71
2023-07-02T18:45:57.022Z,23.73
2023-07-02T18:48:27.364Z,23.51
2023-07-02T18:50:57.892Z,23.66
2023-07-02T18:53:28.821Z,23.66
2023-07-02T18:56:00.556Z,23.44
2023-07-02T18:58:32.789Z,23.24
2023-07-02T19:01:11.349Z,23.28
2023-07-02T19:03:41.778Z,23.11
2023-07-02T19:06:13.727Z,23.06
2023-07-02T19:08:44.830Z,22.96
2023-07-02T19:11:15.086Z,23.03
2023-07-02T19:13:45.390Z,23.01
2023-07-02T19:16:18.105Z,22.93
2023-07-02T19:18:48.309Z,23.05
2023-07-02T19:21:19.334Z,22.99
2023-07-02T19:23:50.400Z,22.80
2023-07-02T19:26:20.432Z,22.64
2023-07-02T19:28:50.722Z,22.59
2023-07-02T19:31:23.549Z,22.53
2023-07-02T19:33:53.746Z,22.36
2023-07-02T19:36:23.818Z,22.45
2023-07-02T19:38:53.954Z,22.53
2023-07-02T19:41:24.021Z,22.47
2023-07-02T19:43:55.480Z,22.36
2023-07-02T19:46:28.639Z,22.22
2023-07-02T19:49:00.351Z,22.21
2023-07-02T19:51:30.609Z,22.16
2023-07-02T19:54:01.414Z,22.05
2023-07-02T19:56:32.414Z,22.27
2023-07-02T19:59:02.851Z,22.32
2023-07-02T20:01:35.649Z,22.27
2023-07-02T20:04:05.877Z,22.18
2023-07-02T20:06:37.701Z,22.17
2023-07-02T20:09:08.161Z,22.06
2023-07-02T20:11:38.244Z,22.07
2023-07-02T20:14:08.406Z,21.97
2023-07-02T20:16:41.109Z,21.89
2023-07-02T20:19:11.343Z,21.78
2023-07-02T20:21:41.863Z,21.84
2023-07-02T20:24:11.894Z,21.74
2023-07-02T20:26:41.976Z,21.76
2023-07-02T20:29:11.958Z,21.67
2023-07-02T20:31:44.646Z,21.66
2023-07-02T20:34:16.496Z,21.56
2023-07-02T20:36:46.571Z,21.59
2023-07-02T20:39:16.577Z,21.66
2023-07-02T20:41:47.435Z,21.48
2023-07-02T20:44:18.149Z,21.36
2023-07-02T20:46:50.831Z,21.40
2023-07-02T20:49:23.434Z,21.32
2023-07-02T20:51:54.165Z,21.42
2023-07-02T20:54:24.290Z,21.49
2023-07-02T20:56:54.376Z,21.36
2023-07-02T20:59:24.461Z,21.35
2023-07-02T21:01:57.115Z,21.30
2023-07-02T21:04:27.322Z,21.16
2023-07-02T21:06:57.347Z,21.10
2023-07-02T21:09:28.416Z,20.93
2023-07-02T21:11:58.679Z,21.00
2023-07-02T21:14:28.738Z,21.01
2023-07-02T21:17:01.677Z,21.09
2023-07-02T21:19:31.865Z,21.09
2023-07-02T21:22:01.975Z,21.08
2023-07-02T21:24:32.061Z,21.14
2023-07-02T21:27:02.127Z,20.95
2023-07-02T21:29:32.306Z,20.93
2023-07-02T21:32:05.073Z,21.04
2023-07-02T21:34:37.040Z,21.15
2023-07-02T21:37:07.343Z,21.02
2023-07-02T21:39:37.404Z,21.13
2023-07-02T21:42:07.916Z,21.12
2023-07-02T21:44:37.954Z,21.14
2023-07-02T21:47:11.029Z,21.00
2023-07-02T21:49:41.124Z,21.01
2023-07-02T21:52:11.337Z,20.98
2023-07-02T21:54:41.428Z,21.01
2023-07-02T21:57:11.767Z,20.91
2023-07-02T21:59:41.854Z,20.78
2023-07-02T22:02:14.582Z,20.79
2023-07-02T22:04:47.310Z,20.80
2023-07-02T22:07:17.566Z,20.81
2023-07-02T22:09:48.272Z,20.72
2023-07-02T22:12:18.267Z,20.64
2023-07-02T22:14:48.305Z,20.78
2023-07-02T22:17:20.923Z,20.84
2023-07-02T22:19:51.031Z,20.80
2023-07-02T22:22:21.103Z,20.78
2023-07-02T22:24:51.557Z,20.83
2023-07-02T22:27:23.641Z,20.74
2023-07-02T22:29:53.688Z,20.80
2023-07-02T22:32:26.409Z,20.96
2023-07-02T22:34:56.568Z,20.92
2023-07-02T22:37:26.921Z,20.51
2023-07-02T22:39:57.144Z,20.52
2023-07-02T22:42:28.129Z,20.35
2023-07-02T22:44:58.387Z,20.24
2023-07-02T22:47:31.506Z,20.36
2023-07-02T22:50:01.590Z,20.46
2023-07-02T22:52:32.248Z,20.29
2023-07-02T22:55:02.745Z,20.20
2023-07-02T22:57:35.336Z,20.03
2023-07-02T23:00:13.434Z,20.24
2023-07-02T23:02:48.911Z,20.05
2023-07-02T23:05:23.940Z,19.99
2023-07-02T23:07:54.273Z,20.28
2023-07-02T23:10:24.286Z,20.30
2023-07-02T23:12:55.418Z,20.20
2023-07-02T23:15:25.684Z,19.94
2023-07-02T23:17:58.572Z,19.97
2023-07-02T23:20:29.256Z,19.83
2023-07-02T23:23:02.845Z,20.05
2023-07-02T23:25:32.810Z,19.99
2023-07-02T23:28:07.667Z,19.71
2023-07-02T23:30:43.085Z,19.76
2023-07-02T23:33:15.947Z,19.77
2023-07-02T23:35:46.132Z,19.82
2023-07-02T23:38:16.365Z,19.73
2023-07-02T23:40:47.084Z,19.73
2023-07-02T23:43:17.242Z,19.73
2023-07-02T23:45:47.413Z,19.69
2023-07-02T23:48:20.071Z,19.66
2023-07-02T23:50:50.291Z,19.55
2023-07-02T23:53:20.345Z,19.63
2023-07-02T23:55:51.695Z,19.51
2023-07-02T23:58:22.299Z,19.51
